sensor_id;sensor_type;location;lat;lon;timestamp;pressure;altitude;pressure_sealevel;temperature;humidity
14818;BME280;7500;57.698;11.986;2022-11-22T00:00:17;100490.47;;;2.39;100.00
14818;BME280;7500;57.698;11.986;2022-11-22T00:02:45;100467.38;;;2.24;100.00
14818;BME280;7500;57.698;11.986;2022-11-22T00:05:13;100482.03;;;2.28;100.00
14818;BME280;7500;57.698;11.986;2022-11-22T00:07:40;100480.50;;;2.20;100.00
14818;BME280;7500;57.698;11.986;2022-11-22T00:10:08;100483.28;;;2.13;100.00
14818;BME280;7500;57.698;11.986;2022-11-22T00:12:36;100478.16;;;2.08;100.00
14818;BME280;7500;57.698;11.986;2022-11-22T00:15:04;100482.63;;;2.03;100.00
14818;BME280;7500;57.698;11.986;2022-11-22T00:17:32;100484.53;;;1.95;100.00
14818;BME280;7500;57.698;11.986;2022-11-22T00:19:59;100489.72;;;1.95;100.00
14818;BME280;7500;57.698;11.986;2022-11-22T00:22:27;100486.31;;;1.93;100.00
14818;BME280;7500;57.698;11.986;2022-11-22T00:24:54;100483.03;;;1.84;100.00
14818;BME280;7500;57.698;11.986;2022-11-22T00:27:21;100491.78;;;1.80;100.00
14818;BME280;7500;57.698;11.986;2022-11-22T00:29:48;100484.94;;;1.74;100.00
14818;BME280;7500;57.698;11.986;2022-11-22T00:32:14;100485.84;;;1.73;100.00
14818;BME280;7500;57.698;11.986;2022-11-22T00:34:41;100479.84;;;1.70;100.00
14818;BME280;7500;57.698;11.986;2022-11-22T00:37:08;100483.34;;;1.69;100.00
14818;BME280;7500;57.698;11.986;2022-11-22T00:39:36;100500.69;;;1.68;100.00
14818;BME280;7500;57.698;11.986;2022-11-22T00:42:03;100485.16;;;1.65;100.00
14818;BME280;7500;57.698;11.986;2022-11-22T00:44:30;100431.19;;;1.32;100.00
14818;BME280;7500;57.698;11.986;2022-11-22T00:46:57;100495.34;;;1.76;100.00
14818;BME280;7500;57.698;11.986;2022-11-22T00:49:23;100485.88;;;1.72;100.00
14818;BME280;7500;57.698;11.986;2022-11-22T00:51:50;100494.63;;;1.68;100.00
14818;BME280;7500;57.698;11.986;2022-11-22T00:54:17;100490.22;;;1.71;100.00
14818;BME280;7500;57.698;11.986;2022-11-22T00:56:45;100479.81;;;1.71;100.00
14818;BME280;7500;57.698;11.986;2022-11-22T00:59:12;100480.63;;;1.75;100.00
14818;BME280;7500;57.698;11.986;2022-11-22T01:01:39;100485.78;;;1.76;100.00
14818;BME280;7500;57.698;11.986;2022-11-22T01:04:05;100485.78;;;1.76;100.00
14818;BME280;7500;57.698;11.986;2022-11-22T01:06:32;100490.22;;;1.71;100.00
14818;BME280;7500;57.698;11.986;2022-11-22T01:09:00;100476.47;;;1.65;100.00
14818;BME280;7500;57.698;11.986;2022-11-22T01:11:27;100483.22;;;1.73;100.00
14818;BME280;7500;57.698;11.986;2022-11-22T01:13:55;100482.41;;;1.71;100.00
14818;BME280;7500;57.698;11.986;2022-11-22T01:16:22;100482.50;;;1.68;100.00
14818;BME280;7500;57.698;11.986;2022-11-22T01:18:48;100494.66;;;1.66;100.00
14818;BME280;7500;57.698;11.986;2022-11-22T01:21:15;100497.34;;;1.62;100.00
14818;BME280;7500;57.698;11.986;2022-11-22T01:23:42;100492.91;;;1.67;100.00
14818;BME280;7500;57.698;11.986;2022-11-22T01:26:09;100492.81;;;1.71;100.00
14818;BME280;7500;57.698;11.986;2022-11-22T01:28:35;100498.88;;;1.72;100.00
14818;BME280;7500;57.698;11.986;2022-11-22T01:31:03;100495.50;;;1.68;100.00
14818;BME280;7500;57.698;11.986;2022-11-22T01:33:30;100496.34;;;1.69;100.00
14818;BME280;7500;57.698;11.986;2022-11-22T01:35:57;100501.44;;;1.73;100.00
14818;BME280;7500;57.698;11.986;2022-11-22T01:38:24;100499.78;;;1.71;100.00
14818;BME280;7500;57.698;11.986;2022-11-22T01:40:51;100493.78;;;1.67;100.00
14818;BME280;7500;57.698;11.986;2022-11-22T01:43:20;100486.53;;;1.81;100.00
14818;BME280;7500;57.698;11.986;2022-11-22T01:45:51;100491.44;;;1.96;100.00
14818;BME280;7500;57.698;11.986;2022-11-22T01:48:30;100496.53;;;2.01;100.00
14818;BME280;7500;57.698;11.986;2022-11-22T01:51:02;100431.47;;;1.61;100.00
14818;BME280;7500;57.698;11.986;2022-11-22T01:53:34;100480.38;;;1.87;100.00
14818;BME280;7500;57.698;11.986;2022-11-22T01:56:02;100499.66;;;1.77;100.00
14818;BME280;7500;57.698;11.986;2022-11-22T01:58:32;100486.81;;;1.69;100.00
14818;BME280;7500;57.698;11.986;2022-11-22T02:01:00;100482.38;;;1.73;100.00
14818;BME280;7500;57.698;11.986;2022-11-22T02:03:30;100479.75;;;1.74;100.00
14818;BME280;7500;57.698;11.986;2022-11-22T02:05:58;100477.06;;;1.79;100.00
14818;BME280;7500;57.698;11.986;2022-11-22T02:08:31;100493.41;;;1.85;100.00
14818;BME280;7500;57.698;11.986;2022-11-22T02:11:01;100494.16;;;1.90;100.00
14818;BME280;7500;57.698;11.986;2022-11-22T02:13:31;100485.50;;;1.90;100.00
14818;BME280;7500;57.698;11.986;2022-11-22T02:16:00;100478.56;;;1.90;100.00
14818;BME280;7500;57.698;11.986;2022-11-22T02:18:30;100487.97;;;1.97;100.00
14818;BME280;7500;57.698;11.986;2022-11-22T02:20:59;100489.66;;;1.98;100.00
14818;BME280;7500;57.698;11.986;2022-11-22T02:23:33;100500.81;;;2.05;100.00
14818;BME280;7500;57.698;11.986;2022-11-22T02:26:03;100503.44;;;2.03;100.00
14818;BME280;7500;57.698;11.986;2022-11-22T02:28:33;100502.69;;;1.98;100.00
14818;BME280;7500;57.698;11.986;2022-11-22T02:31:00;100502.56;;;2.03;100.00
14818;BME280;7500;57.698;11.986;2022-11-22T02:33:27;100501.41;;;2.17;100.00
14818;BME280;7500;57.698;11.986;2022-11-22T02:35:54;100499.88;;;2.07;100.00
14818;BME280;7500;57.698;11.986;2022-11-22T02:38:22;100497.84;;;2.21;100.00
14818;BME280;7500;57.698;11.986;2022-11-22T02:40:52;100496.13;;;2.20;100.00
14818;BME280;7500;57.698;11.986;2022-11-22T02:43:25;100504.75;;;2.22;100.00
14818;BME280;7500;57.698;11.986;2022-11-22T02:45:54;100504.75;;;2.22;100.00
14818;BME280;7500;57.698;11.986;2022-11-22T02:48:21;100502.03;;;2.26;100.00
14818;BME280;7500;57.698;11.986;2022-11-22T02:50:47;100505.47;;;2.30;100.00
14818;BME280;7500;57.698;11.986;2022-11-22T02:53:14;100497.66;;;2.30;100.00
14818;BME280;7500;57.698;11.986;2022-11-22T02:55:41;100511.50;;;2.30;100.00
14818;BME280;7500;57.698;11.986;2022-11-22T02:58:08;100503.06;;;2.21;100.00
14818;BME280;7500;57.698;11.986;2022-11-22T03:00:37;100507.44;;;2.19;100.00
14818;BME280;7500;57.698;11.986;2022-11-22T03:03:04;100504.75;;;2.22;100.00
14818;BME280;7500;57.698;11.986;2022-11-22T03:05:31;100502.16;;;2.22;100.00
14818;BME280;7500;57.698;11.986;2022-11-22T03:07:58;100504.66;;;2.26;100.00
14818;BME280;7500;57.698;11.986;2022-11-22T03:10:25;100512.50;;;2.25;100.00
14818;BME280;7500;57.698;11.986;2022-11-22T03:12:58;100505.53;;;2.25;100.00
14818;BME280;7500;57.698;11.986;2022-11-22T03:15:25;100508.97;;;2.29;100.00
14818;BME280;7500;57.698;11.986;2022-11-22T03:17:57;100509.16;;;2.20;100.00
14818;BME280;7500;57.698;11.986;2022-11-22T03:20:24;100509.84;;;2.26;100.00
14818;BME280;7500;57.698;11.986;2022-11-22T03:22:51;100510.59;;;2.33;100.00
14818;BME280;7500;57.698;11.986;2022-11-22T03:25:18;100511.50;;;2.32;100.00
14818;BME280;7500;57.698;11.986;2022-11-22T03:27:44;100511.34;;;2.38;100.00
14818;BME280;7500;57.698;11.986;2022-11-22T03:30:12;100471.88;;;2.18;100.00
14818;BME280;7500;57.698;11.986;2022-11-22T03:32:39;100513.03;;;2.39;100.00
14818;BME280;7500;57.698;11.986;2022-11-22T03:35:08;100514.56;;;2.49;100.00
14818;BME280;7500;57.698;11.986;2022-11-22T03:37:35;100522.44;;;2.47;100.00
14818;BME280;7500;57.698;11.986;2022-11-22T03:40:09;100509.34;;;2.49;100.00
14818;BME280;7500;57.698;11.986;2022-11-22T03:42:36;100527.41;;;2.58;100.00
14818;BME280;7500;57.698;11.986;2022-11-22T03:45:03;100533.50;;;2.55;100.00
14818;BME280;7500;57.698;11.986;2022-11-22T03:47:30;100528.41;;;2.51;100.00
14818;BME280;7500;57.698;11.986;2022-11-22T03:49:56;100523.91;;;2.59;100.00
14818;BME280;7500;57.698;11.986;2022-11-22T03:52:25;100529.25;;;2.53;100.00
14818;BME280;7500;57.698;11.986;2022-11-22T03:54:51;100541.44;;;2.51;100.00
14818;BME280;7500;57.698;11.986;2022-11-22T03:57:18;100542.97;;;2.61;100.00
14818;BME280;7500;57.698;11.986;2022-11-22T03:59:45;100544.69;;;2.62;100.00
14818;BME280;7500;57.698;11.986;2022-11-22T04:02:12;100538.66;;;2.60;100.00
14818;BME280;7500;57.698;11.986;2022-11-22T04:04:38;100533.38;;;2.63;100.00
14818;BME280;7500;57.698;11.986;2022-11-22T04:07:05;100540.34;;;2.61;100.00
14818;BME280;7500;57.698;11.986;2022-11-22T04:09:33;100540.34;;;2.61;100.00
14818;BME280;7500;57.698;11.986;2022-11-22T04:12:00;100540.41;;;2.58;100.00
14818;BME280;7500;57.698;11.986;2022-11-22T04:14:27;100536.94;;;2.59;100.00
14818;BME280;7500;57.698;11.986;2022-11-22T04:17:11;100538.25;;;2.76;100.00
14818;BME280;7500;57.698;11.986;2022-11-22T04:19:39;100540.66;;;2.85;100.00
14818;BME280;7500;57.698;11.986;2022-11-22T04:22:26;100533.88;;;2.78;100.00
14818;BME280;7500;57.698;11.986;2022-11-22T04:24:53;100542.53;;;2.79;100.00
14818;BME280;7500;57.698;11.986;2022-11-22T04:27:37;100539.72;;;2.88;100.00
14818;BME280;7500;57.698;11.986;2022-11-22T04:30:05;100538.81;;;2.89;100.00
14818;BME280;7500;57.698;11.986;2022-11-22T04:32:32;100549.13;;;2.93;100.00
14818;BME280;7500;57.698;11.986;2022-11-22T04:35:10;100543.28;;;2.84;100.00
14818;BME280;7500;57.698;11.986;2022-11-22T04:37:37;100556.56;;;2.73;100.00
14818;BME280;7500;57.698;11.986;2022-11-22T04:40:06;100555.84;;;2.67;100.00
14818;BME280;7500;57.698;11.986;2022-11-22T04:42:34;100555.69;;;2.73;100.00
14818;BME280;7500;57.698;11.986;2022-11-22T04:45:18;100555.06;;;2.63;100.00
14818;BME280;7500;57.698;11.986;2022-11-22T04:47:44;100552.50;;;2.60;100.00
14818;BME280;7500;57.698;11.986;2022-11-22T04:50:27;100554.34;;;2.57;100.00
14818;BME280;7500;57.698;11.986;2022-11-22T04:53:12;100559.56;;;2.57;100.00
14818;BME280;7500;57.698;11.986;2022-11-22T04:55:43;100559.38;;;2.64;100.00
14818;BME280;7500;57.698;11.986;2022-11-22T04:58:10;100560.13;;;2.71;100.00
14818;BME280;7500;57.698;11.986;2022-11-22T05:00:37;100561.78;;;2.73;100.00
14818;BME280;7500;57.698;11.986;2022-11-22T05:03:05;100572.09;;;2.78;100.00
14818;BME280;7500;57.698;11.986;2022-11-22T05:05:33;100564.34;;;2.75;100.00
14818;BME280;7500;57.698;11.986;2022-11-22T05:08:00;100568.59;;;2.79;100.00
14818;BME280;7500;57.698;11.986;2022-11-22T05:10:27;100566.28;;;2.67;100.00
14818;BME280;7500;57.698;11.986;2022-11-22T05:13:16;100567.94;;;2.71;100.00
14818;BME280;7500;57.698;11.986;2022-11-22T05:15:43;100566.28;;;2.67;100.00
14818;BME280;7500;57.698;11.986;2022-11-22T05:18:09;100566.22;;;2.68;100.00
14818;BME280;7500;57.698;11.986;2022-11-22T05:20:36;100562.72;;;2.69;100.00
14818;BME280;7500;57.698;11.986;2022-11-22T05:23:04;100539.66;;;2.53;100.00
14818;BME280;7500;57.698;11.986;2022-11-22T05:25:48;100576.66;;;2.70;100.00
14818;BME280;7500;57.698;11.986;2022-11-22T05:28:16;100582.75;;;2.69;100.00
14818;BME280;7500;57.698;11.986;2022-11-22T05:30:43;100567.00;;;2.73;100.00
14818;BME280;7500;57.698;11.986;2022-11-22T05:33:09;100575.00;;;2.66;100.00
14818;BME280;7500;57.698;11.986;2022-11-22T05:35:36;100577.59;;;2.66;100.00
14818;BME280;7500;57.698;11.986;2022-11-22T05:38:03;100566.41;;;2.61;100.00
14818;BME280;7500;57.698;11.986;2022-11-22T05:40:30;100581.09;;;2.65;100.00
14818;BME280;7500;57.698;11.986;2022-11-22T05:42:57;100572.38;;;2.66;100.00
14818;BME280;7500;57.698;11.986;2022-11-22T05:45:25;100575.13;;;2.58;100.00
14818;BME280;7500;57.698;11.986;2022-11-22T05:47:52;100583.78;;;2.60;100.00
14818;BME280;7500;57.698;11.986;2022-11-22T05:50:18;100577.84;;;2.54;100.00
14818;BME280;7500;57.698;11.986;2022-11-22T05:52:45;100585.59;;;2.57;100.00
14818;BME280;7500;57.698;11.986;2022-11-22T05:55:12;100586.31;;;2.63;100.00
14818;BME280;7500;57.698;11.986;2022-11-22T05:57:39;100596.69;;;2.66;100.00
14818;BME280;7500;57.698;11.986;2022-11-22T06:00:07;100595.84;;;2.64;100.00
14818;BME280;7500;57.698;11.986;2022-11-22T06:02:35;100604.53;;;2.65;100.00
14818;BME280;7500;57.698;11.986;2022-11-22T06:05:02;100602.75;;;2.67;100.00
14818;BME280;7500;57.698;11.986;2022-11-22T06:07:29;100603.59;;;2.67;100.00
14818;BME280;7500;57.698;11.986;2022-11-22T06:09:56;100606.22;;;2.67;100.00
14818;BME280;7500;57.698;11.986;2022-11-22T06:12:23;100602.59;;;2.73;100.00
14818;BME280;7500;57.698;11.986;2022-11-22T06:14:49;100606.94;;;2.74;100.00
14818;BME280;7500;57.698;11.986;2022-11-22T06:17:16;100597.25;;;2.79;100.00
14818;BME280;7500;57.698;11.986;2022-11-22T06:19:44;100608.31;;;2.90;100.00
14818;BME280;7500;57.698;11.986;2022-11-22T06:22:11;100609.91;;;2.95;100.00
14818;BME280;7500;57.698;11.986;2022-11-22T06:24:38;100609.78;;;3.01;100.00
14818;BME280;7500;57.698;11.986;2022-11-22T06:27:07;100611.75;;;2.90;100.00
14818;BME280;7500;57.698;11.986;2022-11-22T06:29:33;100609.22;;;2.89;100.00
14818;BME280;7500;57.698;11.986;2022-11-22T06:32:00;100616.97;;;2.92;100.00
14818;BME280;7500;57.698;11.986;2022-11-22T06:34:27;100625.56;;;2.95;100.00
14818;BME280;7500;57.698;11.986;2022-11-22T06:36:56;100624.72;;;2.95;100.00
14818;BME280;7500;57.698;11.986;2022-11-22T06:39:22;100633.50;;;2.91;100.00
14818;BME280;7500;57.698;11.986;2022-11-22T06:41:49;100631.72;;;2.93;100.00
14818;BME280;7500;57.698;11.986;2022-11-22T06:44:16;100630.88;;;2.91;100.00
14818;BME280;7500;57.698;11.986;2022-11-22T06:46:43;100631.66;;;2.96;100.00
14818;BME280;7500;57.698;11.986;2022-11-22T06:49:09;100629.69;;;3.05;100.00
14818;BME280;7500;57.698;11.986;2022-11-22T06:51:36;100640.38;;;2.93;100.00
14818;BME280;7500;57.698;11.986;2022-11-22T06:54:05;100641.38;;;2.88;100.00
14818;BME280;7500;57.698;11.986;2022-11-22T06:56:35;100640.66;;;2.81;100.00
14818;BME280;7500;57.698;11.986;2022-11-22T06:59:04;100604.59;;;2.62;100.00
14818;BME280;7500;57.698;11.986;2022-11-22T07:01:32;100642.28;;;2.87;100.00
14818;BME280;7500;57.698;11.986;2022-11-22T07:04:01;100637.06;;;2.87;100.00
14818;BME280;7500;57.698;11.986;2022-11-22T07:06:29;100651.63;;;2.97;100.00
14818;BME280;7500;57.698;11.986;2022-11-22T07:08:57;100649.06;;;2.94;100.00
14818;BME280;7500;57.698;11.986;2022-11-22T07:11:27;100661.09;;;3.01;100.00
14818;BME280;7500;57.698;11.986;2022-11-22T07:13:55;100666.34;;;3.35;100.00
14818;BME280;7500;57.698;11.986;2022-11-22T07:16:22;100667.13;;;3.03;100.00
14818;BME280;7500;57.698;11.986;2022-11-22T07:18:49;100677.69;;;2.95;100.00
14818;BME280;7500;57.698;11.986;2022-11-22T07:21:17;100678.56;;;2.96;100.00
14818;BME280;7500;57.698;11.986;2022-11-22T07:23:46;100685.44;;;3.00;100.00
14818;BME280;7500;57.698;11.986;2022-11-22T07:26:14;100689.06;;;2.93;100.00
14818;BME280;7500;57.698;11.986;2022-11-22T07:28:43;100701.16;;;2.95;100.00
14818;BME280;7500;57.698;11.986;2022-11-22T07:31:11;100704.53;;;3.02;100.00
14818;BME280;7500;57.698;11.986;2022-11-22T07:33:39;100696.88;;;2.93;100.00
14818;BME280;7500;57.698;11.986;2022-11-22T07:36:07;100698.78;;;2.85;100.00
14818;BME280;7500;57.698;11.986;2022-11-22T07:38:35;100710.09;;;2.85;100.00
14818;BME280;7500;57.698;11.986;2022-11-22T07:41:02;100705.66;;;2.89;100.00
14818;BME280;7500;57.698;11.986;2022-11-22T07:43:29;100695.19;;;2.92;100.00
14818;BME280;7500;57.698;11.986;2022-11-22T07:45:58;100708.75;;;3.07;100.00
14818;BME280;7500;57.698;11.986;2022-11-22T07:48:25;100713.06;;;3.07;100.00
14818;BME280;7500;57.698;11.986;2022-11-22T07:50:52;100714.97;;;3.02;100.00
14818;BME280;7500;57.698;11.986;2022-11-22T07:53:19;100716.59;;;3.06;100.00
14818;BME280;7500;57.698;11.986;2022-11-22T07:55:46;100716.63;;;3.04;100.00
14818;BME280;7500;57.698;11.986;2022-11-22T07:58:13;100727.03;;;3.06;100.00
14818;BME280;7500;57.698;11.986;2022-11-22T08:00:39;100728.00;;;3.02;100.00
14818;BME280;7500;57.698;11.986;2022-11-22T08:03:08;100728.78;;;3.05;100.00
14818;BME280;7500;57.698;11.986;2022-11-22T08:05:34;100737.25;;;3.15;100.00
14818;BME280;7500;57.698;11.986;2022-11-22T08:08:01;100734.56;;;3.19;100.00
14818;BME280;7500;57.698;11.986;2022-11-22T08:10:28;100741.78;;;3.44;100.00
14818;BME280;7500;57.698;11.986;2022-11-22T08:12:57;100744.69;;;3.33;100.00
14818;BME280;7500;57.698;11.986;2022-11-22T08:15:24;100740.38;;;3.32;100.00
14818;BME280;7500;57.698;11.986;2022-11-22T08:17:51;100745.59;;;3.32;100.00
14818;BME280;7500;57.698;11.986;2022-11-22T08:20:19;100736.03;;;3.31;100.00
14818;BME280;7500;57.698;11.986;2022-11-22T08:22:46;100751.94;;;3.19;100.00
14818;BME280;7500;57.698;11.986;2022-11-22T08:25:13;100745.59;;;3.32;100.00
14818;BME280;7500;57.698;11.986;2022-11-22T08:27:40;100744.56;;;3.38;100.00
14818;BME280;7500;57.698;11.986;2022-11-22T08:30:08;100744.47;;;3.41;100.00
14818;BME280;7500;57.698;11.986;2022-11-22T08:32:35;100745.16;;;3.86;100.00
14818;BME280;7500;57.698;11.986;2022-11-22T08:35:03;100739.22;;;3.43;100.00
14818;BME280;7500;57.698;11.986;2022-11-22T08:37:31;100747.88;;;3.45;100.00
14818;BME280;7500;57.698;11.986;2022-11-22T08:39:58;100747.06;;;3.41;100.00
14818;BME280;7500;57.698;11.986;2022-11-22T08:42:25;100745.22;;;3.48;100.00
14818;BME280;7500;57.698;11.986;2022-11-22T08:44:51;100745.91;;;3.56;100.00
14818;BME280;7500;57.698;11.986;2022-11-22T08:47:18;100747.16;;;3.75;100.00
14818;BME280;7500;57.698;11.986;2022-11-22T08:49:45;100762.47;;;3.53;100.00
14818;BME280;7500;57.698;11.986;2022-11-22T08:52:12;100727.06;;;3.42;100.00
14818;BME280;7500;57.698;11.986;2022-11-22T08:54:40;100757.47;;;3.81;100.00
14818;BME280;7500;57.698;11.986;2022-11-22T08:57:07;100772.19;;;4.18;100.00
14818;BME280;7500;57.698;11.986;2022-11-22T08:59:34;100773.69;;;4.27;100.00
14818;BME280;7500;57.698;11.986;2022-11-22T09:02:01;100770.78;;;4.39;100.00
14818;BME280;7500;57.698;11.986;2022-11-22T09:04:27;100760.03;;;4.49;100.00
14818;BME280;7500;57.698;11.986;2022-11-22T09:06:55;100761.81;;;4.48;100.00
14818;BME280;7500;57.698;11.986;2022-11-22T09:09:25;100767.00;;;4.50;100.00
14818;BME280;7500;57.698;11.986;2022-11-22T09:11:53;100761.84;;;4.47;100.00
14818;BME280;7500;57.698;11.986;2022-11-22T09:14:20;100760.47;;;4.34;100.00
14818;BME280;7500;57.698;11.986;2022-11-22T09:16:47;100771.53;;;4.43;100.00
14818;BME280;7500;57.698;11.986;2022-11-22T09:19:14;100773.94;;;4.51;100.00
14818;BME280;7500;57.698;11.986;2022-11-22T09:21:41;100774.69;;;4.56;100.00
14818;BME280;7500;57.698;11.986;2022-11-22T09:24:07;100784.25;;;4.57;100.00
14818;BME280;7500;57.698;11.986;2022-11-22T09:26:34;100777.25;;;4.57;100.00
14818;BME280;7500;57.698;11.986;2022-11-22T09:29:02;100774.91;;;4.47;100.00
14818;BME280;7500;57.698;11.986;2022-11-22T09:31:30;100768.25;;;4.36;100.00
14818;BME280;7500;57.698;11.986;2022-11-22T09:33:57;100773.53;;;4.34;100.00
14818;BME280;7500;57.698;11.986;2022-11-22T09:36:25;100778.72;;;4.36;100.00
14818;BME280;7500;57.698;11.986;2022-11-22T09:38:52;100771.75;;;4.35;100.00
14818;BME280;7500;57.698;11.986;2022-11-22T09:41:49;100775.88;;;4.43;100.00
14818;BME280;7500;57.698;11.986;2022-11-22T09:44:27;100778.63;;;4.05;100.00
14818;BME280;7500;57.698;11.986;2022-11-22T09:47:02;100776.53;;;3.84;100.00
14818;BME280;7500;57.698;11.986;2022-11-22T09:49:41;100789.38;;;3.93;100.00
14818;BME280;7500;57.698;11.986;2022-11-22T09:52:15;100789.44;;;3.90;100.00
14818;BME280;7500;57.698;11.986;2022-11-22T09:54:46;100774.72;;;3.88;100.00
14818;BME280;7500;57.698;11.986;2022-11-22T09:57:24;100774.28;;;3.69;100.00
14818;BME280;7500;57.698;11.986;2022-11-22T10:00:02;100784.56;;;3.75;100.00
14818;BME280;7500;57.698;11.986;2022-11-22T10:02:33;100774.41;;;3.63;100.00
14818;BME280;7500;57.698;11.986;2022-11-22T10:05:04;100762.88;;;3.73;100.00
14818;BME280;7500;57.698;11.986;2022-11-22T10:07:39;100766.97;;;3.83;100.00
14818;BME280;7500;57.698;11.986;2022-11-22T10:10:10;100762.44;;;3.91;100.00
14818;BME280;7500;57.698;11.986;2022-11-22T10:12:45;100771.78;;;4.00;100.00
14818;BME280;7500;57.698;11.986;2022-11-22T10:15:24;100775.34;;;3.97;100.00
14818;BME280;7500;57.698;11.986;2022-11-22T10:17:56;100771.78;;;4.01;100.00
14818;BME280;7500;57.698;11.986;2022-11-22T10:20:27;100761.59;;;3.89;100.00
14818;BME280;7500;57.698;11.986;2022-11-22T10:22:54;100768.66;;;3.86;100.00
14818;BME280;7500;57.698;11.986;2022-11-22T10:25:29;100764.28;;;4.21;100.00
14818;BME280;7500;57.698;11.986;2022-11-22T10:28:10;100766.50;;;4.03;100.00
14818;BME280;7500;57.698;11.986;2022-11-22T10:30:47;100765.41;;;4.11;100.00
14818;BME280;7500;57.698;11.986;2022-11-22T10:33:23;100766.34;;;4.09;100.00
14818;BME280;7500;57.698;11.986;2022-11-22T10:36:17;100775.28;;;4.34;100.00
14818;BME280;7500;57.698;11.986;2022-11-22T10:39:00;100764.66;;;4.40;100.00
14818;BME280;7500;57.698;11.986;2022-11-22T10:41:43;100762.94;;;4.40;100.00
14818;BME280;7500;57.698;11.986;2022-11-22T10:44:22;100763.19;;;4.30;100.00
14818;BME280;7500;57.698;11.986;2022-11-22T10:47:00;100769.44;;;4.24;100.00
14818;BME280;7500;57.698;11.986;2022-11-22T10:49:43;100772.25;;;4.17;100.00
14818;BME280;7500;57.698;11.986;2022-11-22T10:52:17;100756.38;;;4.24;100.00
14818;BME280;7500;57.698;11.986;2022-11-22T10:54:54;100764.34;;;4.18;100.00
14818;BME280;7500;57.698;11.986;2022-11-22T10:57:31;100766.75;;;4.26;100.00
14818;BME280;7500;57.698;11.986;2022-11-22T11:00:14;100759.75;;;4.28;100.00
14818;BME280;7500;57.698;11.986;2022-11-22T11:03:12;100766.75;;;4.27;100.00
14818;BME280;7500;57.698;11.986;2022-11-22T11:05:45;100770.38;;;4.22;100.00
14818;BME280;7500;57.698;11.986;2022-11-22T11:08:25;100776.38;;;4.25;100.00
14818;BME280;7500;57.698;11.986;2022-11-22T11:10:55;100773.69;;;4.27;100.00
14818;BME280;7500;57.698;11.986;2022-11-22T11:13:25;100776.22;;;4.31;100.00
14818;BME280;7500;57.698;11.986;2022-11-22T11:15:55;100778.16;;;4.23;100.00
14818;BME280;7500;57.698;11.986;2022-11-22T11:18:29;100783.38;;;4.25;100.00
14818;BME280;7500;57.698;11.986;2022-11-22T11:20:58;100782.50;;;4.24;100.00
14818;BME280;7500;57.698;11.986;2022-11-22T11:23:25;100785.06;;;4.26;100.00
14818;BME280;7500;57.698;11.986;2022-11-22T11:25:51;100772.13;;;4.21;100.00
14818;BME280;7500;57.698;11.986;2022-11-22T11:28:20;100779.25;;;4.15;100.00
14818;BME280;7500;57.698;11.986;2022-11-22T11:30:49;100768.81;;;4.15;100.00
14818;BME280;7500;57.698;11.986;2022-11-22T11:33:25;100770.69;;;4.08;100.00
14818;BME280;7500;57.698;11.986;2022-11-22T11:35:55;100765.66;;;4.01;100.00
14818;BME280;7500;57.698;11.986;2022-11-22T11:38:31;100771.56;;;4.09;100.00
14818;BME280;7500;57.698;11.986;2022-11-22T11:41:15;100778.53;;;4.08;100.00
14818;BME280;7500;57.698;11.986;2022-11-22T11:43:43;100773.22;;;4.11;100.00
14818;BME280;7500;57.698;11.986;2022-11-22T11:46:15;100768.66;;;4.21;100.00
14818;BME280;7500;57.698;11.986;2022-11-22T11:48:43;100773.00;;;4.20;100.00
14818;BME280;7500;57.698;11.986;2022-11-22T11:51:16;100775.41;;;4.29;100.00
14818;BME280;7500;57.698;11.986;2022-11-22T11:53:51;100764.13;;;4.27;100.00
14818;BME280;7500;57.698;11.986;2022-11-22T11:56:25;100766.75;;;4.26;100.00
14818;BME280;7500;57.698;11.986;2022-11-22T11:58:55;100754.44;;;4.31;100.00
14818;BME280;7500;57.698;11.986;2022-11-22T12:01:24;100759.56;;;4.35;100.00
14818;BME280;7500;57.698;11.986;2022-11-22T12:03:57;100752.63;;;4.34;100.00
14818;BME280;7500;57.698;11.986;2022-11-22T12:06:29;100743.00;;;4.36;100.00
14818;BME280;7500;57.698;11.986;2022-11-22T12:08:57;100752.63;;;4.34;100.00
14818;BME280;7500;57.698;11.986;2022-11-22T12:11:31;100745.91;;;4.56;100.00
14818;BME280;7500;57.698;11.986;2022-11-22T12:14:02;100741.72;;;4.81;100.00
14818;BME280;7500;57.698;11.986;2022-11-22T12:16:33;100735.66;;;4.80;100.00
14818;BME280;7500;57.698;11.986;2022-11-22T12:19:14;100739.16;;;4.79;100.00
14818;BME280;7500;57.698;11.986;2022-11-22T12:22:00;100749.47;;;4.84;100.00
14818;BME280;7500;57.698;11.986;2022-11-22T12:24:32;100741.56;;;4.87;100.00
14818;BME280;7500;57.698;11.986;2022-11-22T12:27:02;100754.28;;;4.99;100.00
14818;BME280;7500;57.698;11.986;2022-11-22T12:29:31;100754.31;;;4.97;100.00
14818;BME280;7500;57.698;11.986;2022-11-22T12:32:01;100755.31;;;4.93;100.00
14818;BME280;7500;57.698;11.986;2022-11-22T12:34:35;100756.84;;;5.00;100.00
14818;BME280;7500;57.698;11.986;2022-11-22T12:37:08;100755.09;;;5.01;100.00
14818;BME280;7500;57.698;11.986;2022-11-22T12:39:38;100755.78;;;5.07;100.00
14818;BME280;7500;57.698;11.986;2022-11-22T12:42:13;100753.81;;;5.15;100.00
14818;BME280;7500;57.698;11.986;2022-11-22T12:44:45;100751.31;;;5.11;100.00
14818;BME280;7500;57.698;11.986;2022-11-22T12:47:16;100755.47;;;5.18;100.00
14818;BME280;7500;57.698;11.986;2022-11-22T12:49:50;100748.34;;;5.23;100.00
14818;BME280;7500;57.698;11.986;2022-11-22T12:52:23;100751.84;;;5.22;100.00
14818;BME280;7500;57.698;11.986;2022-11-22T12:54:59;100739.66;;;5.22;100.00
14818;BME280;7500;57.698;11.986;2022-11-22T12:57:34;100744.78;;;5.25;100.00
14818;BME280;7500;57.698;11.986;2022-11-22T13:00:04;100745.88;;;5.18;100.00
14818;BME280;7500;57.698;11.986;2022-11-22T13:02:35;100738.78;;;5.22;100.00